Islamabad Weather



Islamabad's Current Weather

Temprature 38.42o few clouds

few clouds

Rain: 0 %

Min Temprature38o
Max Temprature38.89o
Humidity21
Wind Speed4.1 m/h
Sun Rise04:58:51
Sun Set19:21:56
Current Time: 26-Jun-2019 15:19:13
Lat/Lon: 33.69, 73.06




Islamabad's Geo Location



Islamabad's Weather Forecast

Time Overall Temp Min Temp Max Temp Humidity Wind Speed Rain
26-Jun-2019 (Wed)
17:00:00 clear sky 37.460 36.450 37.460 14 4.62 m/h 0 %
20:00:00 clear sky 31.300 30.547 31.300 20 0.55 m/h 0 %
23:00:00 clear sky 29.040 28.540 29.040 24 3.59 m/h 0 %
27-Jun-2019 (Thu)
02:00:00 clear sky 27.330 27.079 27.330 28 3.97 m/h 0 %
05:00:00 clear sky 25.965 25.965 25.965 27 3 m/h 0 %
08:00:00 clear sky 32.750 32.750 32.750 20 2.74 m/h 0 %
11:00:00 clear sky 37.474 37.474 37.474 14 4.16 m/h 0 %
14:00:00 clear sky 38.650 38.650 38.650 13 4.11 m/h 0 %
17:00:00 clear sky 37.880 37.880 37.880 14 4.13 m/h 0 %
20:00:00 clear sky 32.294 32.294 32.294 20 1.57 m/h 0 %
23:00:00 clear sky 29.935 29.935 29.935 23 3.13 m/h 0 %
28-Jun-2019 (Fri)
02:00:00 clear sky 27.428 27.428 27.428 28 3.8 m/h 0 %
05:00:00 clear sky 26.428 26.428 26.428 29 3.21 m/h 0 %
08:00:00 clear sky 33.319 33.319 33.319 21 2.95 m/h 0 %
11:00:00 clear sky 37.925 37.925 37.925 15 4 m/h 0 %
14:00:00 clear sky 40.131 40.131 40.131 10 3.47 m/h 0 %
17:00:00 clear sky 39.450 39.450 39.450 10 3.74 m/h 0 %
20:00:00 clear sky 32.450 32.450 32.450 17 1.16 m/h 0 %
23:00:00 clear sky 31.072 31.072 31.072 18 2.74 m/h 0 %
29-Jun-2019 (Sat)
02:00:00 clear sky 28.872 28.872 28.872 22 3.43 m/h 0 %
05:00:00 clear sky 27.389 27.389 27.389 25 1.91 m/h 0 %
08:00:00 clear sky 34.577 34.577 34.577 18 1.61 m/h 0 %
11:00:00 clear sky 39.750 39.750 39.750 11 2.8 m/h 0 %
14:00:00 clear sky 41.650 41.650 41.650 8 3.14 m/h 0 %
17:00:00 clear sky 41.191 41.191 41.191 9 5.06 m/h 0 %
20:00:00 scattered clouds 34.550 34.550 34.550 13 2 m/h 0 %
23:00:00 scattered clouds 31.750 31.750 31.750 16 2.62 m/h 0 %
30-Jun-2019 (Sun)
02:00:00 light rain 29.676 29.676 29.676 20 2.64 m/h 13 %
05:00:00 light rain 29.402 29.402 29.402 22 3.18 m/h 6 %
08:00:00 overcast clouds 35.222 35.222 35.222 17 2.53 m/h 0 %
11:00:00 scattered clouds 39.918 39.918 39.918 13 3.18 m/h 0 %
14:00:00 clear sky 42.308 42.308 42.308 10 3.98 m/h 0 %
17:00:00 clear sky 41.550 41.550 41.550 10 4.6 m/h 0 %
20:00:00 clear sky 34.750 34.750 34.750 16 1.27 m/h 0 %
23:00:00 clear sky 31.250 31.250 31.250 22 2.6 m/h 0 %
01-Jul-2019 (Mon)
02:00:00 clear sky 29.850 29.850 29.850 25 3.59 m/h 0 %
05:00:00 clear sky 29.435 29.435 29.435 24 2.85 m/h 0 %
08:00:00 clear sky 35.850 35.850 35.850 19 1.73 m/h 0 %
11:00:00 clear sky 39.950 39.950 39.950 15 3.11 m/h 0 %
14:00:00 clear sky 42.750 42.750 42.750 11 4.17 m/h 0 %


Islamabad's Tourist Spots

Museums in Islamabad

Historical Places in Islamabad

Famous Cities (60)